createdAt,value
2018-05-03T00:01:56.649Z,50.75
2018-05-03T00:04:29.174Z,51.32
2018-05-03T00:07:01.683Z,51.48
2018-05-03T00:09:34.177Z,51.54
2018-05-03T00:12:06.687Z,51.45
2018-05-03T00:14:39.179Z,51.53
2018-05-03T00:17:11.690Z,51.69
2018-05-03T00:19:44.179Z,51.61
2018-05-03T00:22:16.696Z,51.58
2018-05-03T00:24:49.190Z,51.67
2018-05-03T00:27:22.558Z,51.70
2018-05-03T00:29:55.147Z,51.16
2018-05-03T00:32:27.735Z,51.44
2018-05-03T00:35:00.241Z,51.48
2018-05-03T00:37:32.795Z,51.19
2018-05-03T00:40:05.292Z,51.42
2018-05-03T00:42:37.801Z,51.29
2018-05-03T00:45:10.344Z,51.51
2018-05-03T00:47:42.860Z,50.99
2018-05-03T00:50:15.353Z,51.45
2018-05-03T00:52:47.871Z,51.46
2018-05-03T00:55:20.823Z,51.35
2018-05-03T00:57:53.384Z,51.61
2018-05-03T01:00:25.881Z,51.46
2018-05-03T01:02:58.457Z,51.52
2018-05-03T01:05:30.951Z,52.15
2018-05-03T01:08:03.468Z,52.16
2018-05-03T01:10:36.013Z,52.17
2018-05-03T01:13:08.530Z,52.28
2018-05-03T01:15:41.108Z,52.25
2018-05-03T01:18:13.668Z,52.31
2018-05-03T01:20:46.192Z,52.17
2018-05-03T01:23:18.691Z,51.70
2018-05-03T01:25:51.627Z,52.08
2018-05-03T01:28:24.279Z,52.21
2018-05-03T01:30:56.893Z,52.07
2018-05-03T01:33:29.483Z,52.33
2018-05-03T01:36:13.787Z,52.29
2018-05-03T01:38:46.279Z,52.22
2018-05-03T01:41:18.794Z,51.89
2018-05-03T01:43:51.807Z,52.34
2018-05-03T01:46:24.406Z,52.37
2018-05-03T01:48:56.982Z,52.51
2018-05-03T01:51:29.561Z,52.92
2018-05-03T01:54:02.052Z,52.85
2018-05-03T01:56:34.643Z,52.70
2018-05-03T01:59:07.231Z,52.60
2018-05-03T02:01:39.751Z,52.81
2018-05-03T02:04:12.241Z,52.88
2018-05-03T02:06:44.780Z,52.79
2018-05-03T02:09:17.367Z,53.13
2018-05-03T02:11:50.655Z,53.09
2018-05-03T02:14:23.157Z,53.14
2018-05-03T02:16:55.748Z,53.03
2018-05-03T02:19:28.329Z,53.03
2018-05-03T02:22:00.849Z,52.86
2018-05-03T02:24:33.343Z,52.96
2018-05-03T02:27:05.856Z,52.80
2018-05-03T02:29:38.423Z,52.92
2018-05-03T02:34:50.400Z,52.88
2018-05-03T02:37:22.979Z,52.70
2018-05-03T02:39:55.575Z,52.86
2018-05-03T02:42:28.085Z,52.92
2018-05-03T02:45:00.589Z,53.02
2018-05-03T02:47:33.115Z,52.64
2018-05-03T02:50:05.610Z,53.04
2018-05-03T02:52:38.185Z,53.00
2018-05-03T02:55:10.672Z,52.95
2018-05-03T02:58:00.682Z,52.83
2018-05-03T03:00:50.848Z,52.80
2018-05-03T03:03:40.951Z,52.89
2018-05-03T03:06:31.039Z,52.88
2018-05-03T03:09:21.151Z,52.97
2018-05-03T03:12:08.953Z,54.07
2018-05-03T03:14:59.263Z,56.81
2018-05-03T03:17:49.244Z,57.65
2018-05-03T03:20:54.807Z,56.18
2018-05-03T03:23:44.937Z,55.69
2018-05-03T03:26:29.283Z,55.42
2018-05-03T03:29:19.767Z,54.96
2018-05-03T03:32:09.949Z,54.77
2018-05-03T03:34:42.502Z,54.32
2018-05-03T03:37:26.854Z,54.47
2018-05-03T03:40:16.967Z,54.48
2018-05-03T03:43:04.382Z,54.87
2018-05-03T03:45:37.070Z,55.22
2018-05-03T03:48:09.591Z,55.48
2018-05-03T03:50:42.076Z,55.97
2018-05-03T03:53:14.615Z,56.69
2018-05-03T03:55:47.104Z,56.44
2018-05-03T03:58:19.619Z,56.44
2018-05-03T04:00:52.168Z,56.71
2018-05-03T04:03:24.684Z,56.49
2018-05-03T04:05:57.292Z,56.28
2018-05-03T04:08:29.773Z,56.50
2018-05-03T04:11:02.263Z,56.03
2018-05-03T04:13:34.770Z,55.78
2018-05-03T04:16:07.260Z,55.78
2018-05-03T04:18:51.541Z,55.81
2018-05-03T04:24:40.947Z,55.97
2018-05-03T04:27:13.441Z,55.80
2018-05-03T04:29:45.959Z,56.00
2018-05-03T04:32:18.448Z,56.30
2018-05-03T04:34:51.052Z,56.54
2018-05-03T04:37:23.552Z,56.76
2018-05-03T04:39:56.060Z,56.66
2018-05-03T04:42:28.549Z,56.75
2018-05-03T04:45:01.068Z,56.36
2018-05-03T04:47:33.604Z,55.39
2018-05-03T04:50:06.122Z,55.01
2018-05-03T04:52:38.612Z,54.53
2018-05-03T04:55:11.121Z,55.07
2018-05-03T04:57:43.639Z,55.18
2018-05-03T05:00:16.223Z,55.46
2018-05-03T05:02:48.721Z,54.75
2018-05-03T05:05:21.925Z,53.92
2018-05-03T05:07:54.496Z,52.94
2018-05-03T05:10:27.127Z,53.19
2018-05-03T05:12:59.592Z,53.71
2018-05-03T05:15:32.145Z,53.61
2018-05-03T05:18:04.636Z,53.61
2018-05-03T05:20:37.148Z,53.06
2018-05-03T05:23:09.643Z,51.74
2018-05-03T05:25:42.190Z,50.52
2018-05-03T05:28:14.785Z,50.84
2018-05-03T05:30:47.358Z,49.36
2018-05-03T05:33:20.068Z,48.42
2018-05-03T05:35:52.583Z,48.75
2018-05-03T05:38:25.188Z,44.67
2018-05-03T05:40:57.651Z,42.02
2018-05-03T05:43:30.157Z,40.61
2018-05-03T05:46:02.860Z,38.43
2018-05-03T05:48:35.365Z,39.50
2018-05-03T05:51:07.929Z,39.86
2018-05-03T05:53:40.524Z,41.03
2018-05-03T05:56:13.041Z,41.66
2018-05-03T05:58:45.583Z,42.10
2018-05-03T06:01:18.112Z,40.28
2018-05-03T06:03:50.651Z,39.62
2018-05-03T06:06:23.227Z,39.52
2018-05-03T06:08:55.721Z,39.39
2018-05-03T06:11:28.306Z,39.29
2018-05-03T06:14:00.799Z,39.56
2018-05-03T06:16:33.364Z,37.80
2018-05-03T06:19:05.870Z,34.93
2018-05-03T06:21:38.431Z,34.42
2018-05-03T06:24:10.920Z,36.19
2018-05-03T06:26:43.505Z,38.06
2018-05-03T06:29:16.002Z,38.58
2018-05-03T06:31:48.571Z,39.63
2018-05-03T06:34:21.798Z,38.93
2018-05-03T06:36:54.322Z,39.79
2018-05-03T06:39:26.810Z,40.49
2018-05-03T06:41:59.779Z,39.20
2018-05-03T06:44:32.493Z,37.54
2018-05-03T06:47:05.112Z,36.57
2018-05-03T06:49:37.616Z,36.53
2018-05-03T06:52:10.130Z,36.29
2018-05-03T06:54:42.668Z,36.01
2018-05-03T06:57:15.195Z,35.80
2018-05-03T06:59:47.691Z,35.44
2018-05-03T07:02:20.499Z,36.13
2018-05-03T07:04:53.016Z,35.01
2018-05-03T07:07:25.600Z,35.13
2018-05-03T07:09:58.114Z,33.46
2018-05-03T07:12:30.631Z,34.97
2018-05-03T07:15:03.147Z,35.08
2018-05-03T07:17:35.661Z,33.11
2018-05-03T07:20:08.167Z,33.98
2018-05-03T07:22:40.703Z,33.91
2018-05-03T07:25:13.284Z,33.41
2018-05-03T07:27:45.839Z,32.96
2018-05-03T07:30:18.338Z,32.51
2018-05-03T07:32:51.731Z,32.43
2018-05-03T07:35:24.236Z,32.76
2018-05-03T07:37:56.826Z,32.42
2018-05-03T07:40:29.320Z,32.33
2018-05-03T07:43:01.859Z,33.00
2018-05-03T07:45:34.367Z,32.16
2018-05-03T07:48:06.882Z,31.50
2018-05-03T07:50:39.389Z,32.52
2018-05-03T07:53:11.904Z,32.07
2018-05-03T07:55:44.399Z,30.65
2018-05-03T07:58:17.126Z,30.82
2018-05-03T08:00:49.711Z,30.80
2018-05-03T08:03:22.279Z,30.81
2018-05-03T08:05:54.877Z,31.46
2018-05-03T08:08:27.391Z,31.39
2018-05-03T08:10:59.992Z,31.13
2018-05-03T08:13:32.524Z,30.40
2018-05-03T08:16:05.026Z,30.25
2018-05-03T08:18:37.535Z,30.19
2018-05-03T08:21:10.039Z,30.37
2018-05-03T08:23:42.560Z,30.91
2018-05-03T08:26:15.147Z,30.84
2018-05-03T08:28:47.657Z,30.71
2018-05-03T08:31:20.543Z,31.18
2018-05-03T08:33:53.108Z,30.33
2018-05-03T08:36:25.719Z,30.84
2018-05-03T08:38:58.240Z,30.44
2018-05-03T08:41:30.739Z,30.47
2018-05-03T08:44:03.355Z,31.22
2018-05-03T08:46:35.867Z,30.03
2018-05-03T08:49:08.419Z,29.42
2018-05-03T08:51:40.926Z,30.25
2018-05-03T08:54:13.438Z,29.54
2018-05-03T08:56:45.967Z,29.85
2018-05-03T08:59:18.483Z,28.24
2018-05-03T09:01:51.962Z,28.20
2018-05-03T09:04:24.544Z,28.10
2018-05-03T09:06:57.041Z,28.77
2018-05-03T09:09:29.559Z,29.15
2018-05-03T09:12:02.105Z,28.79
2018-05-03T09:14:34.615Z,28.35
2018-05-03T09:17:07.160Z,29.53
2018-05-03T09:19:39.671Z,27.86
2018-05-03T09:22:12.285Z,28.08
2018-05-03T09:24:44.808Z,27.85
2018-05-03T09:27:17.299Z,27.84
2018-05-03T09:29:50.062Z,28.03
2018-05-03T09:32:22.550Z,27.51
2018-05-03T09:34:55.295Z,27.66
2018-05-03T09:37:27.815Z,26.91
2018-05-03T09:40:00.323Z,25.97
2018-05-03T09:42:32.812Z,26.43
2018-05-03T09:45:05.409Z,27.09
2018-05-03T09:47:37.994Z,28.03
2018-05-03T09:50:10.583Z,28.12
2018-05-03T09:52:43.159Z,27.95
2018-05-03T09:55:15.676Z,27.85
2018-05-03T09:57:48.166Z,28.21
2018-05-03T10:00:20.857Z,27.09
2018-05-03T10:02:53.355Z,26.61
2018-05-03T10:05:25.912Z,26.19
2018-05-03T10:07:58.414Z,27.07
2018-05-03T10:10:30.946Z,28.80
2018-05-03T10:13:03.551Z,27.19
2018-05-03T10:15:36.138Z,26.10
2018-05-03T10:18:08.640Z,26.13
2018-05-03T10:20:41.204Z,26.67
2018-05-03T10:23:13.704Z,27.53
2018-05-03T10:25:46.227Z,26.90
2018-05-03T10:28:18.757Z,25.85
2018-05-03T10:30:51.675Z,25.86
2018-05-03T10:33:24.235Z,25.39
2018-05-03T10:35:56.836Z,26.38
2018-05-03T10:38:29.404Z,26.31
2018-05-03T10:41:01.983Z,24.50
2018-05-03T10:43:34.483Z,24.51
2018-05-03T10:46:07.053Z,25.35
2018-05-03T10:48:39.704Z,25.73
2018-05-03T10:51:12.179Z,26.05
2018-05-03T10:53:44.676Z,24.66
2018-05-03T10:56:17.196Z,25.34
2018-05-03T10:58:50.057Z,25.17
2018-05-03T11:01:22.563Z,24.81
2018-05-03T11:03:55.066Z,25.47
2018-05-03T11:06:27.575Z,25.74
2018-05-03T11:09:00.145Z,25.75
2018-05-03T11:11:32.655Z,25.40
2018-05-03T11:14:05.151Z,25.39
2018-05-03T11:16:37.678Z,25.38
2018-05-03T11:19:10.270Z,24.78
2018-05-03T11:21:42.764Z,24.42
2018-05-03T11:24:15.339Z,24.28
2018-05-03T11:26:47.841Z,24.34
2018-05-03T11:29:20.679Z,25.48
2018-05-03T11:31:53.207Z,26.41
2018-05-03T11:34:25.802Z,26.37
2018-05-03T11:36:58.365Z,25.47
2018-05-03T11:39:30.963Z,26.28
2018-05-03T11:42:03.551Z,24.63
2018-05-03T11:44:36.146Z,26.83
2018-05-03T11:47:08.739Z,25.94
2018-05-03T11:49:41.265Z,25.28
2018-05-03T11:52:13.797Z,23.56
2018-05-03T11:54:46.383Z,24.42
2018-05-03T11:57:18.876Z,24.13
2018-05-03T11:59:52.372Z,24.82
2018-05-03T12:02:24.931Z,24.31
2018-05-03T12:04:57.434Z,24.68
2018-05-03T12:07:29.925Z,23.78
2018-05-03T12:10:02.508Z,23.83
2018-05-03T12:12:35.090Z,24.01
2018-05-03T12:15:07.673Z,23.84
2018-05-03T12:17:40.261Z,23.66
2018-05-03T12:20:12.783Z,24.16
2018-05-03T12:22:45.275Z,24.20
2018-05-03T12:25:17.791Z,25.30
2018-05-03T12:27:51.101Z,24.83
2018-05-03T12:30:23.610Z,25.40
2018-05-03T12:32:56.232Z,25.84
2018-05-03T12:35:28.789Z,25.18
2018-05-03T12:38:01.355Z,25.55
2018-05-03T12:40:33.886Z,25.69
2018-05-03T12:43:06.380Z,26.30
2018-05-03T12:45:39.005Z,26.36
2018-05-03T12:48:11.503Z,25.56
2018-05-03T12:50:44.027Z,24.84
2018-05-03T12:53:16.555Z,23.87
2018-05-03T12:55:49.079Z,24.33
2018-05-03T12:58:22.633Z,24.10
2018-05-03T13:00:55.149Z,23.40
2018-05-03T13:03:27.722Z,23.74
2018-05-03T13:06:00.252Z,24.77
2018-05-03T13:08:32.796Z,24.43
2018-05-03T13:11:05.310Z,24.11
2018-05-03T13:13:37.804Z,24.67
2018-05-03T13:16:10.335Z,23.67
2018-05-03T13:18:42.828Z,24.72
2018-05-03T13:21:15.353Z,25.66
2018-05-03T13:23:47.891Z,24.90
2018-05-03T13:26:20.744Z,25.05
2018-05-03T13:28:53.260Z,25.03
2018-05-03T13:31:25.773Z,24.88
2018-05-03T13:33:58.267Z,24.49
2018-05-03T13:36:30.785Z,23.46
2018-05-03T13:39:03.309Z,22.37
2018-05-03T13:41:36.064Z,23.47
2018-05-03T13:44:08.565Z,22.73
2018-05-03T13:46:41.121Z,22.56
2018-05-03T13:49:13.662Z,22.33
2018-05-03T13:51:46.179Z,23.33
2018-05-03T13:54:18.735Z,22.71
2018-05-03T13:56:51.868Z,23.09
2018-05-03T13:59:24.369Z,22.57
2018-05-03T14:01:56.896Z,24.13
2018-05-03T14:04:29.421Z,24.05
2018-05-03T14:07:02.089Z,24.23
2018-05-03T14:09:34.662Z,23.01
2018-05-03T14:12:07.354Z,24.49
2018-05-03T14:14:39.945Z,24.55
2018-05-03T14:17:12.499Z,23.58
2018-05-03T14:19:45.012Z,23.52
2018-05-03T14:22:17.560Z,24.01
2018-05-03T14:24:50.091Z,23.38
2018-05-03T14:27:22.627Z,22.99
2018-05-03T14:29:55.130Z,22.83
2018-05-03T14:32:27.984Z,22.85
2018-05-03T14:35:00.489Z,23.28
2018-05-03T14:37:33.012Z,22.16
2018-05-03T14:40:05.579Z,23.39
2018-05-03T14:42:38.243Z,23.98
2018-05-03T14:45:10.871Z,23.41
2018-05-03T14:47:43.383Z,23.67
2018-05-03T14:50:15.892Z,23.63
2018-05-03T14:52:48.403Z,24.78
2018-05-03T14:55:21.592Z,24.96
2018-05-03T14:57:54.223Z,24.71
2018-05-03T15:00:26.781Z,25.33
2018-05-03T15:02:59.280Z,25.37
2018-05-03T15:05:31.812Z,25.78
2018-05-03T15:08:04.369Z,25.61
2018-05-03T15:10:36.944Z,26.51
2018-05-03T15:13:09.507Z,27.05
2018-05-03T15:15:42.095Z,26.53
2018-05-03T15:18:14.656Z,26.91
2018-05-03T15:20:47.170Z,26.51
2018-05-03T15:23:19.768Z,26.24
2018-05-03T15:25:52.282Z,27.03
2018-05-03T15:28:24.783Z,27.22
2018-05-03T15:30:57.333Z,27.10
2018-05-03T15:33:29.896Z,26.97
2018-05-03T15:36:02.484Z,27.76
2018-05-03T15:38:35.084Z,28.27
2018-05-03T15:41:07.599Z,28.60
2018-05-03T15:43:40.099Z,28.49
2018-05-03T15:46:12.715Z,27.66
2018-05-03T15:48:45.299Z,28.69
2018-05-03T15:51:17.869Z,27.91
2018-05-03T15:53:50.749Z,28.34
2018-05-03T15:56:23.264Z,27.84
2018-05-03T15:58:55.774Z,26.75
2018-05-03T16:01:28.340Z,27.06
2018-05-03T16:04:00.832Z,26.92
2018-05-03T16:06:33.355Z,27.59
2018-05-03T16:09:05.864Z,27.22
2018-05-03T16:11:38.385Z,27.96
2018-05-03T16:14:10.902Z,27.63
2018-05-03T16:16:43.675Z,27.90
2018-05-03T16:19:16.235Z,29.04
2018-05-03T16:21:48.761Z,27.63
2018-05-03T16:24:22.123Z,27.83
2018-05-03T16:26:54.640Z,27.90
2018-05-03T16:29:27.128Z,28.34
2018-05-03T16:31:59.671Z,28.00
2018-05-03T16:34:32.327Z,27.95
2018-05-03T16:37:04.872Z,27.94
2018-05-03T16:39:37.443Z,28.59
2018-05-03T16:42:10.159Z,28.32
2018-05-03T16:44:42.657Z,26.87
2018-05-03T16:47:15.184Z,26.71
2018-05-03T16:49:47.684Z,27.16
2018-05-03T16:52:20.654Z,29.22
2018-05-03T16:54:53.175Z,27.16
2018-05-03T16:57:25.748Z,28.96
2018-05-03T16:59:58.389Z,29.22
2018-05-03T17:02:30.940Z,29.63
2018-05-03T17:05:03.635Z,29.18
2018-05-03T17:07:36.144Z,27.57
2018-05-03T17:10:08.764Z,28.85
2018-05-03T17:12:41.285Z,29.64
2018-05-03T17:15:14.492Z,28.50
2018-05-03T17:17:47.074Z,28.95
2018-05-03T17:20:20.392Z,27.90
2018-05-03T17:22:52.913Z,27.45
2018-05-03T17:25:25.451Z,28.88
2018-05-03T17:27:58.136Z,29.41
2018-05-03T17:30:30.712Z,29.28
2018-05-03T17:33:03.236Z,27.41
2018-05-03T17:35:35.732Z,29.11
2018-05-03T17:38:08.256Z,29.24
2018-05-03T17:40:40.752Z,28.58
2018-05-03T17:43:13.341Z,29.26
2018-05-03T17:45:46.222Z,29.14
2018-05-03T17:48:18.831Z,29.26
2018-05-03T17:50:51.520Z,29.71
2018-05-03T17:53:24.312Z,29.98
2018-05-03T17:55:56.840Z,29.74
2018-05-03T17:58:29.361Z,29.87
2018-05-03T18:01:02.196Z,30.37
2018-05-03T18:03:34.711Z,30.95
2018-05-03T18:06:07.204Z,31.42
2018-05-03T18:08:39.723Z,30.84
2018-05-03T18:11:12.291Z,30.90
2018-05-03T18:13:44.875Z,31.66
2018-05-03T18:16:17.589Z,31.29
2018-05-03T18:18:50.432Z,31.19
2018-05-03T18:21:22.968Z,31.53
2018-05-03T18:23:55.531Z,32.14
2018-05-03T18:26:28.029Z,32.56
2018-05-03T18:29:00.560Z,32.84
2018-05-03T18:31:33.106Z,32.76
2018-05-03T18:34:05.675Z,33.08
2018-05-03T18:36:38.175Z,33.28
2018-05-03T18:39:10.748Z,33.44
2018-05-03T18:41:43.336Z,33.87
2018-05-03T18:44:15.815Z,33.79
2018-05-03T18:46:48.310Z,34.37
2018-05-03T18:49:21.877Z,34.53
2018-05-03T18:51:54.394Z,34.84
2018-05-03T18:54:26.932Z,34.71
2018-05-03T18:56:59.431Z,35.08
2018-05-03T18:59:32.063Z,35.20
2018-05-03T19:02:04.618Z,35.40
2018-05-03T19:04:37.187Z,35.69
2018-05-03T19:07:09.688Z,35.75
2018-05-03T19:09:42.218Z,35.73
2018-05-03T19:12:14.723Z,36.11
2018-05-03T19:14:47.271Z,36.40
2018-05-03T19:17:19.759Z,36.79
2018-05-03T19:19:52.287Z,36.94
2018-05-03T19:22:24.784Z,36.83
2018-05-03T19:24:57.631Z,37.09
2018-05-03T19:27:30.203Z,37.36
2018-05-03T19:30:02.737Z,37.43
2018-05-03T19:32:35.267Z,37.81
2018-05-03T19:35:07.797Z,37.59
2018-05-03T19:37:40.345Z,38.03
2018-05-03T19:40:12.876Z,38.16
2018-05-03T19:42:45.414Z,38.86
2018-05-03T19:45:17.946Z,39.16
2018-05-03T19:47:50.920Z,39.28
2018-05-03T19:50:23.491Z,39.30
2018-05-03T19:52:56.169Z,39.42
2018-05-03T19:55:28.748Z,39.23
2018-05-03T19:58:01.205Z,39.43
2018-05-03T20:00:33.724Z,39.43
2018-05-03T20:03:06.240Z,39.57
2018-05-03T20:05:38.783Z,39.59
2018-05-03T20:08:11.362Z,39.50
2018-05-03T20:10:43.875Z,39.48
2018-05-03T20:13:16.371Z,39.91
2018-05-03T20:15:48.885Z,39.71
2018-05-03T20:18:21.999Z,39.40
2018-05-03T20:20:54.527Z,40.00
2018-05-03T20:23:27.035Z,40.32
2018-05-03T20:25:59.563Z,40.13
2018-05-03T20:28:32.153Z,40.38
2018-05-03T20:31:04.747Z,40.24
2018-05-03T20:33:37.255Z,40.55
2018-05-03T20:36:09.843Z,41.22
2018-05-03T20:38:42.350Z,41.03
2018-05-03T20:41:14.890Z,41.42
2018-05-03T20:43:47.446Z,41.39
2018-05-03T20:46:20.603Z,41.96
2018-05-03T20:48:53.160Z,42.10
2018-05-03T20:51:25.685Z,42.05
2018-05-03T20:53:58.184Z,42.50
2018-05-03T20:56:30.793Z,42.62
2018-05-03T20:59:03.298Z,42.68
2018-05-03T21:01:35.885Z,42.28
2018-05-03T21:04:08.455Z,43.14
2018-05-03T21:06:41.048Z,43.55
2018-05-03T21:09:13.548Z,43.54
2018-05-03T21:11:46.064Z,43.25
2018-05-03T21:14:18.552Z,43.51
2018-05-03T21:16:55.009Z,43.63
2018-05-03T21:19:27.508Z,44.75
2018-05-03T21:22:00.254Z,44.89
2018-05-03T21:24:32.752Z,45.05
2018-05-03T21:27:05.335Z,44.27
2018-05-03T21:29:37.919Z,44.69
2018-05-03T21:32:10.509Z,44.18
2018-05-03T21:34:43.027Z,44.60
2018-05-03T21:37:15.543Z,44.89
2018-05-03T21:39:48.039Z,45.06
2018-05-03T21:42:20.583Z,44.70
2018-05-03T21:44:53.135Z,44.63
2018-05-03T21:47:25.654Z,45.31
2018-05-03T21:49:58.203Z,44.89
2018-05-03T21:52:30.720Z,45.33
2018-05-03T21:55:03.208Z,45.60
2018-05-03T21:57:35.722Z,45.47
2018-05-03T22:00:08.246Z,45.65
2018-05-03T22:02:40.780Z,45.69
2018-05-03T22:05:13.271Z,44.78
2018-05-03T22:07:45.788Z,45.11
2018-05-03T22:10:18.284Z,46.38
2018-05-03T22:12:50.847Z,46.14
2018-05-03T22:15:23.352Z,46.99
2018-05-03T22:17:55.876Z,46.92
2018-05-03T22:20:28.372Z,45.60
2018-05-03T22:23:00.888Z,45.35
2018-05-03T22:25:33.407Z,45.42
2018-05-03T22:28:05.988Z,46.26
2018-05-03T22:30:38.477Z,46.58
2018-05-03T22:33:11.065Z,46.62
2018-05-03T22:35:43.567Z,46.77
2018-05-03T22:38:16.078Z,46.74
2018-05-03T22:40:48.637Z,46.62
2018-05-03T22:43:21.698Z,45.89
2018-05-03T22:45:54.197Z,45.87
2018-05-03T22:48:26.707Z,46.20
2018-05-03T22:50:59.196Z,47.25
2018-05-03T22:53:31.706Z,50.35
2018-05-03T22:56:04.190Z,51.35
2018-05-03T22:58:36.799Z,50.02
2018-05-03T23:01:09.291Z,49.76
2018-05-03T23:03:41.873Z,48.83
2018-05-03T23:06:14.366Z,48.55
2018-05-03T23:08:46.887Z,49.00
2018-05-03T23:11:21.006Z,48.47
2018-05-03T23:13:53.558Z,48.53
2018-05-03T23:16:26.141Z,48.46
2018-05-03T23:18:58.652Z,48.97
2018-05-03T23:21:31.148Z,48.75
2018-05-03T23:24:03.664Z,48.37
2018-05-03T23:26:36.158Z,48.12
2018-05-03T23:29:08.676Z,48.22
2018-05-03T23:31:41.232Z,48.33
2018-05-03T23:34:13.738Z,47.49
2018-05-03T23:36:46.229Z,48.43
2018-05-03T23:39:18.754Z,48.66
2018-05-03T23:41:52.390Z,48.45
2018-05-03T23:44:24.902Z,48.50
2018-05-03T23:46:57.460Z,49.10
2018-05-03T23:49:29.974Z,49.43
2018-05-03T23:52:02.465Z,49.15
2018-05-03T23:54:35.008Z,48.88
2018-05-03T23:57:07.590Z,48.78
2018-05-03T23:59:40.098Z,48.21
